Time;durP1;ratioP1;P1;durP2;ratioP2;P2;SDS_P1;SDS_P2;PMS_P1;PMS_P2;Temp;Humidity;BMP_temperature;BMP_pressure;BME280_temperature;BME280_humidity;BME280_pressure;Samples;Min_cycle;Max_cycle;Signal;HPM_P1;HPM_P2
2021/05/22 00:00:39;;;;;;;14.13;2.15;;;11.20;99.90;;;;;;1913651;74;21149;-78
2021/05/22 00:03:07;;;;;;;15.28;2.50;;;11.00;99.90;;;;;;1912222;73;21149;-76
2021/05/22 00:05:34;;;;;;;10.15;2.02;;;11.10;99.90;;;;;;1913428;74;21586;-76
2021/05/22 00:08:02;;;;;;;12.73;2.20;;;10.90;99.90;;;;;;1915360;73;21179;-76
2021/05/22 00:10:29;;;;;;;10.03;2.00;;;11.10;99.90;;;;;;1913833;74;21155;-77
2021/05/22 00:12:57;;;;;;;8.93;2.05;;;11.30;99.90;;;;;;1911600;74;21210;-77
2021/05/22 00:15:24;;;;;;;13.03;1.77;;;11.50;99.90;;;;;;1912205;74;21556;-77
2021/05/22 00:17:52;;;;;;;10.20;1.87;;;11.00;99.90;;;;;;1915072;74;21132;-77
2021/05/22 00:20:20;;;;;;;8.95;2.10;;;11.00;99.90;;;;;;1914458;74;21428;-77
2021/05/22 00:22:47;;;;;;;13.03;2.45;;;11.10;99.90;;;;;;1912430;74;21161;-76
2021/05/22 00:25:16;;;;;;;14.10;2.35;;;10.90;99.90;;;;;;1912130;74;21190;-77
2021/05/22 00:27:44;;;;;;;7.80;2.27;;;11.20;99.90;;;;;;1909405;74;21414;-78
2021/05/22 00:30:13;;;;;;;8.65;2.15;;;11.30;99.90;;;;;;1915089;74;21102;-77
2021/05/22 00:32:40;;;;;;;9.18;2.25;;;11.30;99.90;;;;;;1911387;74;21160;-77
2021/05/22 00:35:09;;;;;;;9.58;2.10;;;11.10;99.90;;;;;;1912637;74;21132;-78
2021/05/22 00:37:36;;;;;;;8.73;2.22;;;11.00;99.90;;;;;;1912865;74;21150;-77
2021/05/22 00:40:05;;;;;;;10.58;1.80;;;11.30;99.90;;;;;;1909999;74;21117;-77
2021/05/22 00:42:36;;;;;;;14.00;2.42;;;11.50;99.90;;;;;;1907027;74;21165;-77
2021/05/22 00:45:10;;;;;;;9.88;1.90;;;11.40;99.90;;;;;;1913647;73;21117;-77
2021/05/22 00:47:40;;;;;;;7.47;1.82;;;11.40;99.90;;;;;;1910378;74;21095;-77
2021/05/22 00:50:11;;;;;;;8.28;2.02;;;11.40;99.90;;;;;;1910671;74;21095;-77
2021/05/22 00:52:39;;;;;;;5.50;2.00;;;11.40;99.90;;;;;;1912725;74;21086;-77
2021/05/22 00:55:08;;;;;;;10.03;2.08;;;11.30;99.90;;;;;;1911784;74;21195;-76
2021/05/22 00:57:36;;;;;;;8.88;2.22;;;11.00;99.90;;;;;;1914138;74;21499;-76
2021/05/22 01:00:05;;;;;;;9.65;1.90;;;11.00;99.90;;;;;;1909037;74;21124;-76
2021/05/22 01:02:33;;;;;;;6.87;2.00;;;11.00;99.90;;;;;;1908213;73;21122;-77
2021/05/22 01:05:00;;;;;;;8.33;1.70;;;10.80;99.90;;;;;;1909765;74;21056;-77
2021/05/22 01:07:27;;;;;;;11.50;2.10;;;10.80;99.90;;;;;;1906354;73;21595;-76
2021/05/22 01:09:57;;;;;;;13.53;2.02;;;11.00;99.90;;;;;;1911359;74;21094;-76
2021/05/22 01:12:33;;;;;;;10.70;2.20;;;11.20;99.90;;;;;;1912599;73;21521;-76
2021/05/22 01:15:04;;;;;;;9.28;2.00;;;11.00;99.90;;;;;;1901884;74;21495;-76
2021/05/22 01:17:33;;;;;;;10.68;2.22;;;11.20;99.90;;;;;;1907017;74;21066;-76
2021/05/22 01:20:34;;;;;;;9.58;1.60;;;11.10;99.90;;;;;;1911454;74;21144;-77
2021/05/22 01:23:07;;;;;;;6.67;1.82;;;11.10;99.90;;;;;;1908848;74;21124;-77
2021/05/22 01:25:38;;;;;;;8.58;1.90;;;11.30;99.90;;;;;;1908393;74;21369;-76
2021/05/22 01:28:08;;;;;;;9.35;2.17;;;11.10;99.90;;;;;;1908199;73;21523;-76
2021/05/22 01:30:36;;;;;;;7.25;2.20;;;11.10;99.90;;;;;;1907634;74;21568;-76
2021/05/22 01:33:06;;;;;;;6.75;1.98;;;11.10;99.90;;;;;;1913635;74;21135;-75
2021/05/22 01:35:34;;;;;;;8.60;1.55;;;11.00;99.90;;;;;;1906736;74;21186;-76
2021/05/22 01:38:01;;;;;;;6.55;1.65;;;11.10;99.90;;;;;;1906105;74;21106;-76
2021/05/22 01:40:29;;;;;;;5.12;1.90;;;11.00;99.90;;;;;;1905854;74;21086;-76
2021/05/22 01:42:57;;;;;;;9.50;2.25;;;11.00;99.90;;;;;;1900874;74;21176;-75
2021/05/22 01:45:33;;;;;;;9.83;2.22;;;10.90;99.90;;;;;;1905696;74;21189;-76
2021/05/22 01:48:03;;;;;;;7.12;1.75;;;11.10;99.90;;;;;;1901254;73;22128;-77
2021/05/22 01:50:36;;;;;;;5.67;1.50;;;11.20;99.90;;;;;;1900910;74;21544;-76
2021/05/22 01:53:07;;;;;;;10.08;2.15;;;11.30;99.90;;;;;;1902112;74;21122;-77
2021/05/22 01:55:35;;;;;;;7.17;1.60;;;11.40;99.90;;;;;;1903481;74;21137;-77
2021/05/22 01:58:03;;;;;;;7.67;1.70;;;11.30;99.90;;;;;;1911758;74;21099;-78
2021/05/22 02:00:31;;;;;;;6.95;1.92;;;11.30;99.90;;;;;;1904562;74;21087;-78
2021/05/22 02:03:18;;;;;;;12.73;2.12;;;11.30;99.90;;;;;;1895163;74;21154;-75
2021/05/22 02:05:48;;;;;;;6.92;1.90;;;11.40;99.90;;;;;;1902777;74;21085;-77
2021/05/22 02:08:18;;;;;;;11.80;1.87;;;11.40;99.90;;;;;;1904144;74;21105;-78
2021/05/22 02:10:48;;;;;;;6.12;1.35;;;11.60;99.90;;;;;;1906691;74;21099;-77
2021/05/22 02:13:17;;;;;;;9.95;1.77;;;11.80;99.90;;;;;;1897876;74;21126;-77
2021/05/22 02:15:47;;;;;;;9.88;1.75;;;11.60;99.90;;;;;;1896736;74;21054;-79
2021/05/22 02:18:15;;;;;;;6.72;1.65;;;11.40;99.90;;;;;;1899394;74;21588;-78
2021/05/22 02:20:44;;;;;;;13.28;1.77;;;11.50;99.90;;;;;;1899424;74;21083;-77
2021/05/22 02:23:15;;;;;;;10.32;2.05;;;11.60;99.90;;;;;;1898045;74;21107;-77
2021/05/22 02:25:43;;;;;;;9.58;1.80;;;11.50;99.90;;;;;;1902575;74;21102;-77
2021/05/22 02:28:11;;;;;;;9.70;2.17;;;11.40;99.90;;;;;;1901820;74;21016;-77
2021/05/22 02:30:42;;;;;;;9.83;2.08;;;11.20;99.90;;;;;;1908626;74;21087;-77
2021/05/22 02:33:11;;;;;;;10.05;2.08;;;11.20;99.90;;;;;;1903018;74;21130;-77
2021/05/22 02:35:40;;;;;;;9.35;1.55;;;11.30;99.90;;;;;;1901171;74;21059;-76
2021/05/22 02:38:10;;;;;;;7.35;1.87;;;11.40;99.90;;;;;;1903949;74;21148;-76
2021/05/22 02:40:38;;;;;;;7.50;1.80;;;11.30;99.90;;;;;;1904411;74;21091;-76
2021/05/22 02:43:11;;;;;;;7.70;2.10;;;11.20;99.90;;;;;;1903797;74;21182;-76
2021/05/22 02:45:42;;;;;;;8.48;1.95;;;11.20;99.90;;;;;;1906033;74;21086;-77
2021/05/22 02:48:13;;;;;;;7.20;1.72;;;11.20;99.90;;;;;;1900107;74;21169;-76
2021/05/22 02:50:41;;;;;;;6.12;1.40;;;11.20;99.90;;;;;;1908774;74;21063;-76
2021/05/22 02:53:12;;;;;;;6.42;1.80;;;11.30;99.90;;;;;;1905186;74;21140;-76
2021/05/22 02:55:40;;;;;;;11.40;2.05;;;11.20;99.90;;;;;;1907176;74;21064;-77
2021/05/22 02:58:09;;;;;;;8.58;1.80;;;11.20;99.90;;;;;;1902332;74;21154;-78
2021/05/22 03:00:37;;;;;;;7.30;1.67;;;11.20;99.90;;;;;;1903909;74;21624;-76
2021/05/22 03:03:05;;;;;;;8.95;2.55;;;11.20;99.90;;;;;;1902370;74;21116;-76
2021/05/22 03:05:32;;;;;;;8.68;2.10;;;11.00;99.90;;;;;;1901835;73;21563;-76
2021/05/22 03:08:01;;;;;;;5.45;1.90;;;10.90;99.90;;;;;;1902935;74;21098;-76
2021/05/22 03:10:30;;;;;;;9.18;1.50;;;11.10;99.90;;;;;;1898362;74;21087;-75
2021/05/22 03:12:58;;;;;;;6.97;1.70;;;11.00;99.90;;;;;;1873455;75;21129;-76
2021/05/22 03:15:25;;;;;;;7.08;1.90;;;10.90;99.90;;;;;;1870165;74;21046;-76
2021/05/22 03:17:53;;;;;;;7.55;1.75;;;10.90;99.90;;;;;;1907067;74;21059;-76
2021/05/22 03:20:20;;;;;;;7.00;1.75;;;11.00;99.90;;;;;;1907800;74;21101;-77
2021/05/22 03:22:48;;;;;;;5.28;1.35;;;11.10;99.90;;;;;;1905042;74;21142;-76
2021/05/22 03:25:16;;;;;;;8.43;1.80;;;11.00;99.90;;;;;;1908785;74;21083;-76
2021/05/22 03:27:43;;;;;;;10.23;1.95;;;11.20;99.90;;;;;;1903434;74;21180;-76
2021/05/22 03:30:11;;;;;;;9.00;1.87;;;11.10;99.90;;;;;;1912227;74;21103;-76
2021/05/22 03:32:39;;;;;;;10.20;1.67;;;11.10;99.90;;;;;;1908454;74;21185;-77
2021/05/22 03:35:07;;;;;;;5.53;1.70;;;11.20;99.90;;;;;;1908872;74;21568;-76
2021/05/22 03:37:34;;;;;;;7.78;1.95;;;11.00;99.90;;;;;;1908061;74;21169;-76
2021/05/22 03:40:03;;;;;;;6.42;1.70;;;10.90;99.90;;;;;;1906835;74;21078;-76
2021/05/22 03:42:30;;;;;;;8.15;1.40;;;11.10;99.90;;;;;;1905480;74;21145;-77
2021/05/22 03:44:58;;;;;;;9.18;1.72;;;11.00;99.90;;;;;;1906963;74;21094;-77
2021/05/22 03:47:25;;;;;;;11.70;1.98;;;10.80;99.90;;;;;;1905393;74;21567;-77
2021/05/22 03:49:53;;;;;;;4.90;1.52;;;11.00;99.90;;;;;;1912089;74;21117;-76
2021/05/22 03:52:20;;;;;;;7.83;2.05;;;11.10;99.90;;;;;;1906414;74;21149;-76
2021/05/22 03:54:47;;;;;;;11.78;1.90;;;11.20;99.90;;;;;;1909113;74;21082;-76
2021/05/22 03:57:15;;;;;;;4.60;1.75;;;11.20;99.90;;;;;;1907730;74;21102;-76
2021/05/22 03:59:43;;;;;;;6.15;1.52;;;11.00;99.90;;;;;;1906320;74;21114;-76
2021/05/22 04:02:10;;;;;;;9.73;2.08;;;11.10;99.90;;;;;;1903458;74;21138;-76
2021/05/22 04:04:38;;;;;;;8.45;1.95;;;11.30;99.90;;;;;;1908170;73;21085;-75
2021/05/22 04:07:05;;;;;;;5.95;1.50;;;11.30;99.90;;;;;;1907028;74;21505;-75
2021/05/22 04:09:32;;;;;;;5.95;1.90;;;11.10;99.90;;;;;;1912434;74;21370;-76
2021/05/22 04:12:00;;;;;;;7.97;1.70;;;11.40;99.90;;;;;;1907738;74;21126;-76
2021/05/22 04:14:27;;;;;;;6.55;1.57;;;11.20;99.90;;;;;;1908299;74;21094;-75
2021/05/22 04:16:55;;;;;;;8.50;1.70;;;11.30;99.90;;;;;;1906323;74;21090;-75
2021/05/22 04:19:22;;;;;;;12.25;2.00;;;11.20;99.90;;;;;;1909251;73;21126;-77
2021/05/22 04:21:51;;;;;;;6.70;1.50;;;11.10;99.90;;;;;;1908106;74;21066;-78
2021/05/22 04:24:21;;;;;;;8.43;1.80;;;11.10;99.90;;;;;;1910147;74;21039;-77
2021/05/22 04:26:48;;;;;;;5.58;1.55;;;11.20;99.90;;;;;;1909447;74;21685;-78
2021/05/22 04:29:16;;;;;;;8.20;1.57;;;11.20;99.90;;;;;;1909527;74;21104;-76
2021/05/22 04:31:43;;;;;;;6.87;1.50;;;11.20;99.90;;;;;;1912487;73;21174;-75
2021/05/22 04:34:11;;;;;;;11.30;1.80;;;11.30;99.90;;;;;;1904316;74;21082;-77
2021/05/22 04:36:39;;;;;;;8.55;1.60;;;11.40;99.90;;;;;;1907658;74;21172;-77
2021/05/22 04:39:07;;;;;;;13.85;1.67;;;11.40;99.90;;;;;;1908741;74;21177;-76
2021/05/22 04:41:35;;;;;;;12.28;1.47;;;11.30;99.90;;;;;;1905544;74;21189;-76
2021/05/22 04:44:02;;;;;;;9.68;1.85;;;11.20;99.90;;;;;;1911465;74;21087;-76
2021/05/22 04:46:30;;;;;;;8.30;1.60;;;11.30;99.90;;;;;;1921930;73;21152;-76
2021/05/22 04:48:57;;;;;;;10.95;2.47;;;11.20;99.90;;;;;;1870881;76;21085;-77
2021/05/22 04:51:26;;;;;;;5.15;1.47;;;11.30;99.90;;;;;;1865503;75;21579;-76
2021/05/22 04:54:05;;;;;;;10.38;1.90;;;11.30;99.90;;;;;;1909484;74;21094;-76
2021/05/22 04:56:33;;;;;;;11.03;2.08;;;11.50;99.90;;;;;;1903689;74;21165;-77
2021/05/22 04:59:01;;;;;;;5.67;1.62;;;11.30;99.90;;;;;;1908878;74;21512;-77
2021/05/22 05:01:30;;;;;;;11.45;1.80;;;11.40;99.90;;;;;;1906548;74;21671;-78
2021/05/22 05:03:57;;;;;;;6.28;1.32;;;11.50;99.90;;;;;;1909330;74;21093;-76
2021/05/22 05:06:26;;;;;;;6.95;1.70;;;11.70;99.90;;;;;;1907099;74;21020;-76
2021/05/22 05:08:54;;;;;;;10.13;2.00;;;11.80;99.90;;;;;;1913982;74;21606;-76
2021/05/22 05:11:22;;;;;;;10.80;1.65;;;11.60;99.90;;;;;;1907499;74;21638;-77
2021/05/22 05:13:49;;;;;;;10.32;1.62;;;11.60;99.90;;;;;;1909048;74;21011;-76
2021/05/22 05:16:17;;;;;;;8.63;1.55;;;11.60;99.90;;;;;;1907952;74;21074;-77
2021/05/22 05:18:44;;;;;;;9.05;2.00;;;11.60;99.90;;;;;;1908724;74;21657;-76
2021/05/22 05:21:12;;;;;;;7.85;1.65;;;11.70;99.90;;;;;;1905302;73;21582;-77
2021/05/22 05:23:40;;;;;;;8.13;1.87;;;11.70;99.90;;;;;;1908236;74;21207;-77
2021/05/22 05:26:08;;;;;;;10.08;1.60;;;11.60;99.90;;;;;;1904971;74;21137;-78
2021/05/22 05:28:35;;;;;;;8.58;1.60;;;11.80;99.90;;;;;;1905425;74;21176;-77
2021/05/22 05:31:04;;;;;;;5.80;1.40;;;11.70;99.90;;;;;;1905586;74;21188;-77
2021/05/22 05:33:32;;;;;;;7.03;1.35;;;11.60;99.90;;;;;;1906619;73;21185;-77
2021/05/22 05:35:59;;;;;;;9.20;1.67;;;11.70;99.90;;;;;;1905404;74;21612;-76
2021/05/22 05:38:27;;;;;;;7.03;1.82;;;11.80;99.90;;;;;;1905991;74;21122;-76
2021/05/22 05:40:56;;;;;;;14.03;1.87;;;11.80;99.90;;;;;;1909377;73;21055;-77
2021/05/22 05:43:23;;;;;;;10.05;1.50;;;11.80;99.90;;;;;;1909273;73;21150;-78
2021/05/22 05:45:51;;;;;;;10.08;1.50;;;11.90;99.90;;;;;;1906317;74;21102;-81
2021/05/22 05:48:18;;;;;;;6.97;1.92;;;11.80;99.90;;;;;;1897964;74;21039;-80
2021/05/22 05:50:46;;;;;;;10.70;1.95;;;11.80;99.90;;;;;;1911007;73;21122;-79
2021/05/22 05:53:14;;;;;;;14.58;1.52;;;11.80;99.90;;;;;;1908192;74;21122;-80
2021/05/22 05:55:41;;;;;;;6.33;1.40;;;11.90;99.90;;;;;;1909035;73;21402;-81
2021/05/22 05:58:08;;;;;;;10.08;1.72;;;11.90;99.90;;;;;;1908067;74;21059;-80
2021/05/22 06:00:36;;;;;;;15.00;1.60;;;11.80;99.90;;;;;;1907786;74;21188;-78
2021/05/22 06:03:03;;;;;;;5.72;1.50;;;11.80;99.90;;;;;;1909801;74;21624;-79
2021/05/22 06:05:31;;;;;;;9.13;1.85;;;11.90;99.90;;;;;;1910262;73;21035;-81
2021/05/22 06:07:58;;;;;;;9.38;1.50;;;12.00;99.90;;;;;;1906496;74;21082;-81
2021/05/22 06:10:27;;;;;;;9.50;1.83;;;12.10;99.90;;;;;;1909659;74;21086;-81
2021/05/22 06:12:56;;;;;;;7.65;1.95;;;12.10;99.90;;;;;;1904056;74;21142;-81
2021/05/22 06:15:30;;;;;;;10.38;2.17;;;12.00;99.90;;;;;;1901368;74;21085;-81
2021/05/22 06:17:54;;;;;;;5.67;1.60;;;12.00;99.90;;;;;;1909839;74;21198;-80
2021/05/22 06:20:22;;;;;;;11.78;1.87;;;12.00;99.90;;;;;;1906073;74;21025;-80
2021/05/22 06:22:49;;;;;;;9.58;1.40;;;12.10;99.90;;;;;;1911798;74;21060;-80
2021/05/22 06:25:17;;;;;;;5.83;1.82;;;12.20;99.90;;;;;;1910413;74;21174;-80
2021/05/22 06:27:44;;;;;;;8.95;1.70;;;12.20;99.90;;;;;;1905604;74;21150;-80
2021/05/22 06:30:12;;;;;;;8.78;2.08;;;12.30;99.90;;;;;;1913743;73;21193;-80
2021/05/22 06:32:40;;;;;;;10.35;1.92;;;12.40;99.90;;;;;;1909260;74;21146;-80
2021/05/22 06:35:08;;;;;;;7.33;1.62;;;12.30;99.90;;;;;;1911012;74;22536;-80
2021/05/22 06:37:35;;;;;;;7.78;1.98;;;12.30;99.90;;;;;;1906966;74;21045;-80
2021/05/22 06:40:03;;;;;;;8.15;1.72;;;12.30;99.90;;;;;;1909472;74;21090;-80
2021/05/22 06:42:32;;;;;;;6.28;1.32;;;12.30;99.90;;;;;;1906283;74;21130;-80
2021/05/22 06:45:13;;;;;;;5.60;1.20;;;12.40;99.90;;;;;;1925971;74;21114;-80
2021/05/22 06:47:38;;;;;;;7.45;1.72;;;12.50;99.90;;;;;;1909282;74;21212;-79
2021/05/22 06:50:06;;;;;;;10.50;1.98;;;12.40;99.90;;;;;;1903947;74;21107;-80
2021/05/22 06:52:34;;;;;;;10.43;1.65;;;12.40;99.90;;;;;;1907464;73;21088;-79
2021/05/22 06:55:01;;;;;;;9.00;2.05;;;12.40;99.90;;;;;;1909357;73;21054;-80
2021/05/22 06:57:29;;;;;;;10.08;1.80;;;12.60;99.90;;;;;;1905476;74;21078;-79
2021/05/22 06:59:56;;;;;;;14.10;1.90;;;12.60;99.90;;;;;;1903184;74;21098;-80
2021/05/22 07:02:24;;;;;;;7.95;2.00;;;12.60;99.90;;;;;;1905510;74;21133;-79
2021/05/22 07:04:51;;;;;;;10.80;1.95;;;12.60;99.90;;;;;;1905631;73;21097;-79
2021/05/22 07:07:19;;;;;;;9.70;2.02;;;12.60;99.90;;;;;;1908118;74;21098;-79
2021/05/22 07:09:46;;;;;;;6.95;1.70;;;12.50;99.90;;;;;;1913405;74;21102;-79
2021/05/22 07:12:14;;;;;;;8.20;2.00;;;12.50;99.90;;;;;;1906348;74;21055;-78
2021/05/22 07:14:42;;;;;;;9.45;1.98;;;12.60;99.90;;;;;;1904527;74;21450;-76
2021/05/22 07:17:09;;;;;;;7.45;1.90;;;12.50;99.90;;;;;;1904079;74;21565;-77
2021/05/22 07:19:37;;;;;;;7.92;1.67;;;12.50;99.90;;;;;;1906258;74;21098;-76
2021/05/22 07:22:04;;;;;;;11.83;2.10;;;12.40;99.90;;;;;;1903999;74;21538;-77
2021/05/22 07:24:32;;;;;;;5.78;1.80;;;12.20;99.90;;;;;;1908091;74;21157;-77
2021/05/22 07:26:59;;;;;;;10.13;1.98;;;12.20;99.90;;;;;;1904226;73;21103;-78
2021/05/22 07:29:27;;;;;;;9.13;1.98;;;12.20;99.90;;;;;;1909599;74;21130;-76
2021/05/22 07:31:55;;;;;;;11.10;1.98;;;12.10;99.90;;;;;;1908206;74;21166;-77
2021/05/22 07:34:22;;;;;;;7.33;2.20;;;12.00;99.90;;;;;;1907374;74;21231;-77
2021/05/22 07:36:50;;;;;;;9.48;2.00;;;11.90;99.90;;;;;;1910506;74;21087;-77
2021/05/22 07:39:17;;;;;;;8.75;1.90;;;12.00;99.90;;;;;;1902154;74;21101;-76
2021/05/22 07:41:47;;;;;;;5.70;2.08;;;11.90;99.90;;;;;;1907036;74;21126;-78
2021/05/22 07:44:14;;;;;;;11.22;2.42;;;11.80;99.90;;;;;;1905597;74;21621;-78
2021/05/22 07:46:42;;;;;;;9.80;2.10;;;11.90;99.90;;;;;;1862335;76;21110;-78
2021/05/22 07:49:11;;;;;;;13.05;2.52;;;11.90;99.90;;;;;;1912328;74;21177;-78
2021/05/22 07:51:40;;;;;;;6.87;2.22;;;11.70;99.90;;;;;;1909782;74;21161;-77
2021/05/22 07:54:08;;;;;;;18.62;2.58;;;11.60;99.90;;;;;;1895780;73;22535;-80
2021/05/22 07:56:35;;;;;;;9.78;2.98;;;11.60;99.90;;;;;;1901642;74;21160;-79
2021/05/22 07:59:03;;;;;;;9.90;2.40;;;11.60;99.90;;;;;;1897080;74;21514;-79
2021/05/22 08:01:33;;;;;;;11.00;2.95;;;11.60;99.90;;;;;;1899385;74;21211;-78
2021/05/22 08:04:01;;;;;;;8.88;2.52;;;11.60;99.90;;;;;;1902652;74;21118;-78
2021/05/22 08:06:28;;;;;;;7.37;2.30;;;11.70;99.90;;;;;;1908355;74;21218;-78
2021/05/22 08:08:56;;;;;;;12.20;3.00;;;11.60;99.90;;;;;;1910676;74;21110;-78
2021/05/22 08:11:23;;;;;;;13.80;2.83;;;11.60;99.90;;;;;;1899626;74;21106;-78
2021/05/22 08:13:51;;;;;;;8.33;2.95;;;11.50;99.90;;;;;;1830986;77;22513;-79
2021/05/22 08:16:18;;;;;;;10.25;2.72;;;11.20;99.90;;;;;;1907640;73;21164;-77
2021/05/22 08:18:46;;;;;;;10.82;2.95;;;11.10;99.90;;;;;;1900367;74;21089;-79
2021/05/22 08:21:13;;;;;;;18.80;3.77;;;11.00;99.90;;;;;;1901716;74;21138;-78
2021/05/22 08:23:41;;;;;;;12.98;3.27;;;11.10;99.90;;;;;;1906572;74;21063;-78
2021/05/22 08:26:08;;;;;;;11.35;3.52;;;11.10;99.90;;;;;;1910967;74;21071;-79
2021/05/22 08:28:36;;;;;;;7.25;3.10;;;11.20;99.90;;;;;;1899531;74;21061;-80
2021/05/22 08:31:03;;;;;;;11.73;3.40;;;11.30;99.90;;;;;;1910707;74;21092;-78
2021/05/22 08:33:31;;;;;;;9.60;2.85;;;11.50;99.90;;;;;;1914120;73;21172;-78
2021/05/22 08:35:58;;;;;;;10.90;3.17;;;11.40;99.90;;;;;;1836997;77;21116;-79
2021/05/22 08:38:26;;;;;;;9.73;3.87;;;11.30;99.90;;;;;;1834476;77;21556;-77
2021/05/22 08:40:56;;;;;;;13.25;2.85;;;11.40;99.90;;;;;;1905258;74;21111;-77
2021/05/22 08:43:23;;;;;;;11.78;3.75;;;11.50;99.90;;;;;;1901821;74;21695;-77
2021/05/22 08:45:51;;;;;;;13.30;4.53;;;11.30;99.90;;;;;;1918115;73;21053;-77
2021/05/22 08:48:19;;;;;;;13.32;4.45;;;11.40;99.90;;;;;;1910246;74;21069;-79
2021/05/22 08:50:48;;;;;;;9.23;4.25;;;11.30;99.90;;;;;;1919410;74;21153;-78
2021/05/22 08:53:15;;;;;;;13.72;3.75;;;11.40;99.90;;;;;;1912149;74;22222;-77
2021/05/22 08:55:43;;;;;;;8.50;3.30;;;11.30;99.90;;;;;;1861338;75;21129;-76
2021/05/22 08:58:10;;;;;;;10.10;3.70;;;11.40;99.90;;;;;;1907034;73;21678;-77
2021/05/22 09:00:41;;;;;;;7.72;3.20;;;11.30;99.90;;;;;;1906179;74;21671;-77
2021/05/22 09:03:11;;;;;;;11.12;2.92;;;11.10;99.90;;;;;;1898657;74;21648;-79
2021/05/22 09:05:45;;;;;;;14.00;3.17;;;11.20;99.90;;;;;;1910402;74;21134;-79
2021/05/22 09:08:14;;;;;;;13.28;3.95;;;11.30;99.90;;;;;;1899369;74;21191;-79
2021/05/22 09:10:47;;;;;;;9.85;3.45;;;11.40;99.90;;;;;;1901600;74;21217;-78
2021/05/22 09:13:23;;;;;;;14.78;3.85;;;11.30;99.90;;;;;;1904517;73;21130;-77
2021/05/22 09:15:59;;;;;;;13.38;3.10;;;11.30;99.90;;;;;;1898981;74;21135;-79
2021/05/22 09:18:29;;;;;;;16.17;3.35;;;11.20;99.90;;;;;;1902704;74;21102;-78
2021/05/22 09:20:59;;;;;;;10.05;3.05;;;11.20;99.90;;;;;;1899444;74;21157;-76
2021/05/22 09:23:29;;;;;;;8.13;3.22;;;11.20;99.90;;;;;;1905102;74;21836;-78
2021/05/22 09:26:02;;;;;;;11.05;3.35;;;11.20;99.90;;;;;;1863318;75;21149;-78
2021/05/22 09:28:35;;;;;;;11.55;3.47;;;11.30;99.90;;;;;;1861304;75;21207;-77
2021/05/22 09:31:05;;;;;;;9.15;3.22;;;11.30;99.90;;;;;;1862866;75;21546;-77
2021/05/22 09:33:35;;;;;;;12.47;2.95;;;11.30;99.90;;;;;;1869602;75;21232;-78
2021/05/22 09:36:08;;;;;;;11.18;3.20;;;11.30;99.90;;;;;;1862750;75;21219;-77
2021/05/22 09:38:44;;;;;;;9.73;3.42;;;11.20;99.90;;;;;;1869804;75;22294;-77
2021/05/22 09:41:17;;;;;;;8.18;4.67;;;11.30;99.90;;;;;;1866135;75;21122;-77
2021/05/22 09:43:47;;;;;;;11.48;3.62;;;11.30;99.90;;;;;;1870812;75;21087;-77
2021/05/22 09:46:15;;;;;;;9.90;3.27;;;11.40;99.90;;;;;;1821523;77;21086;-78
2021/05/22 09:48:42;;;;;;;13.10;3.05;;;11.40;99.90;;;;;;1902442;73;21460;-78
2021/05/22 09:51:10;;;;;;;8.68;3.25;;;11.40;99.90;;;;;;1906494;73;21070;-77
2021/05/22 09:53:38;;;;;;;15.78;3.87;;;11.30;99.90;;;;;;1903758;74;21177;-78
2021/05/22 09:56:17;;;;;;;8.20;2.87;;;11.40;99.90;;;;;;1869327;75;21061;-76
2021/05/22 09:58:49;;;;;;;11.80;3.17;;;11.50;99.90;;;;;;1901624;74;21100;-77
2021/05/22 10:01:18;;;;;;;11.78;3.55;;;11.50;99.90;;;;;;1905763;74;21111;-79
2021/05/22 10:03:47;;;;;;;7.55;2.90;;;11.50;99.90;;;;;;1915378;74;21109;-79
2021/05/22 10:06:16;;;;;;;9.95;2.80;;;11.60;99.90;;;;;;1871585;76;21609;-77
2021/05/22 10:08:45;;;;;;;7.72;3.12;;;11.60;99.90;;;;;;1835528;77;21642;-78
2021/05/22 10:11:13;;;;;;;5.75;2.65;;;11.60;99.90;;;;;;1904160;74;22201;-78
2021/05/22 10:13:42;;;;;;;5.87;2.70;;;11.70;99.90;;;;;;1877634;75;21617;-78
2021/05/22 10:16:10;;;;;;;8.55;2.70;;;11.70;99.90;;;;;;1905925;74;21132;-77
2021/05/22 10:18:39;;;;;;;9.65;2.90;;;11.70;99.90;;;;;;1901231;74;21169;-78
2021/05/22 10:21:06;;;;;;;8.30;2.40;;;11.70;99.90;;;;;;1904748;74;21103;-77
2021/05/22 10:23:35;;;;;;;11.38;2.67;;;11.80;99.90;;;;;;1908232;74;21203;-78
2021/05/22 10:26:02;;;;;;;7.97;2.65;;;11.70;99.90;;;;;;1907463;73;21045;-77
2021/05/22 10:28:30;;;;;;;8.25;2.50;;;11.70;99.90;;;;;;1868603;74;21066;-78
2021/05/22 10:30:57;;;;;;;8.55;2.55;;;11.80;99.90;;;;;;1908897;73;21586;-78
2021/05/22 10:33:26;;;;;;;6.75;2.30;;;11.80;99.90;;;;;;1906934;74;21658;-78
2021/05/22 10:35:59;;;;;;;13.78;2.83;;;12.00;99.90;;;;;;1903575;74;21103;-79
2021/05/22 10:38:36;;;;;;;8.00;2.05;;;12.10;99.90;;;;;;1907902;73;21106;-79
2021/05/22 10:41:08;;;;;;;10.10;2.20;;;12.10;99.90;;;;;;1906437;73;21128;-79
2021/05/22 10:43:48;;;;;;;6.72;1.98;;;12.00;99.90;;;;;;1907032;73;21178;-79
2021/05/22 10:46:17;;;;;;;6.10;2.52;;;12.00;99.90;;;;;;1907793;74;21657;-78
2021/05/22 10:48:47;;;;;;;8.03;2.05;;;12.10;99.90;;;;;;1906796;74;21502;-79
2021/05/22 10:51:34;;;;;;;7.55;2.00;;;12.00;99.90;;;;;;1909881;73;21086;-79
2021/05/22 10:54:04;;;;;;;7.42;2.20;;;12.10;99.90;;;;;;1912743;74;21022;-79
2021/05/22 10:56:32;;;;;;;11.80;2.30;;;12.10;99.90;;;;;;1909514;73;21034;-78
2021/05/22 10:59:07;;;;;;;11.57;2.95;;;12.10;99.90;;;;;;1906900;74;21015;-79
2021/05/22 11:01:42;;;;;;;;;;;12.20;99.90;;;;;;1911659;73;21125;-78
2021/05/22 11:04:17;;;;;;;9.23;2.33;;;12.20;99.90;;;;;;1866939;74;20126;-76
2021/05/22 11:06:53;;;;;;;8.85;2.55;;;12.30;99.90;;;;;;1821672;77;21050;-76
2021/05/22 11:09:35;;;;;;;7.70;2.52;;;12.40;99.90;;;;;;1845360;76;21018;-74
2021/05/22 11:12:04;;;;;;;6.45;2.30;;;12.50;99.90;;;;;;1822934;76;21041;-76
2021/05/22 11:14:47;;;;;;;6.00;2.40;;;12.60;99.90;;;;;;1916584;74;21122;-76
2021/05/22 11:17:26;;;;;;;8.80;2.55;;;12.50;99.90;;;;;;1917791;74;21600;-76
2021/05/22 11:22:49;;;;;;;6.35;1.98;;;12.30;99.90;;;;;;1899788;74;21083;-75
2021/05/22 11:25:14;;;;;;;6.45;1.82;;;12.40;99.90;;;;;;1916765;73;21110;-74
2021/05/22 11:27:48;;;;;;;9.58;2.22;;;12.40;99.90;;;;;;1918431;74;21160;-74
2021/05/22 11:30:18;;;;;;;7.33;2.00;;;12.50;99.90;;;;;;1918062;73;21109;-74
2021/05/22 11:32:57;;;;;;;4.83;1.92;;;12.50;99.90;;;;;;1914079;73;21191;-75
2021/05/22 11:35:31;;;;;;;7.25;1.87;;;12.40;99.90;;;;;;1921169;73;21079;-76
2021/05/22 11:38:21;;;;;;;6.25;1.70;;;12.40;99.90;;;;;;1917608;74;21573;-76
2021/05/22 11:40:53;;;;;;;6.58;1.90;;;12.40;99.90;;;;;;1929498;73;21106;-76
2021/05/22 11:43:23;;;;;;;11.03;2.27;;;12.40;99.90;;;;;;1911632;73;21228;-76
2021/05/22 11:45:53;;;;;;;5.05;1.57;;;12.30;99.90;;;;;;1920676;74;21125;-75
2021/05/22 11:48:36;;;;;;;3.98;1.60;;;12.40;99.90;;;;;;1922122;74;21120;-76
2021/05/22 11:51:10;;;;;;;6.58;1.50;;;12.40;99.90;;;;;;1915986;74;21114;-76
2021/05/22 11:53:40;;;;;;;9.93;1.47;;;12.40;99.90;;;;;;1920158;73;21083;-75
2021/05/22 11:56:13;;;;;;;5.78;1.80;;;12.50;99.90;;;;;;1919611;74;21051;-74
2021/05/22 11:58:40;;;;;;;3.30;1.37;;;12.50;99.90;;;;;;1914650;74;21115;-76
2021/05/22 12:01:22;;;;;;;4.28;1.72;;;12.50;99.90;;;;;;1920757;74;21097;-75
2021/05/22 12:03:54;;;;;;;5.35;1.60;;;12.50;99.90;;;;;;1921963;73;21623;-76
2021/05/22 12:06:31;;;;;;;4.58;1.52;;;12.50;99.90;;;;;;1920673;74;21545;-76
2021/05/22 12:09:06;;;;;;;6.20;2.20;;;12.50;99.90;;;;;;1918318;73;21130;-74
2021/05/22 12:11:37;;;;;;;3.95;1.92;;;12.60;99.90;;;;;;1915554;73;21111;-75
2021/05/22 12:14:07;;;;;;;6.20;1.82;;;12.70;99.90;;;;;;1920159;73;21591;-76
2021/05/22 12:16:36;;;;;;;3.05;1.40;;;12.70;99.90;;;;;;1915794;73;21094;-76
2021/05/22 12:19:18;;;;;;;7.17;1.95;;;12.60;99.90;;;;;;1922837;73;21094;-75
2021/05/22 12:21:50;;;;;;;6.28;1.92;;;12.60;99.90;;;;;;1919607;73;21148;-77
2021/05/22 12:24:19;;;;;;;3.52;1.42;;;12.60;99.90;;;;;;1921596;73;21051;-76
2021/05/22 12:26:50;;;;;;;4.12;1.70;;;12.50;99.90;;;;;;1921220;73;21089;-76
2021/05/22 12:29:17;;;;;;;5.30;1.80;;;12.50;99.90;;;;;;1923525;73;21122;-77
2021/05/22 12:31:50;;;;;;;7.05;1.67;;;12.60;99.90;;;;;;1919093;73;21141;-75
2021/05/22 12:34:26;;;;;;;3.67;1.70;;;12.60;99.90;;;;;;1918926;73;21198;-77
2021/05/22 12:37:00;;;;;;;4.65;1.55;;;12.80;99.90;;;;;;1921330;73;21042;-77
2021/05/22 12:39:46;;;;;;;8.03;1.67;;;12.70;99.90;;;;;;1923198;73;21091;-76
2021/05/22 12:42:23;;;;;;;3.90;1.42;;;12.70;99.90;;;;;;1920363;73;20999;-75
2021/05/22 12:45:11;;;;;;;4.75;1.52;;;12.80;99.90;;;;;;1924824;73;21583;-77
2021/05/22 12:47:40;;;;;;;8.28;1.60;;;12.80;99.90;;;;;;1920062;73;21637;-74
2021/05/22 12:50:10;;;;;;;6.00;1.80;;;12.70;99.90;;;;;;1917522;73;21098;-75
2021/05/22 12:52:55;;;;;;;6.15;1.62;;;12.70;99.90;;;;;;1916539;73;21192;-74
2021/05/22 12:55:26;;;;;;;3.90;1.42;;;12.70;99.90;;;;;;1919888;73;21087;-74
2021/05/22 12:57:54;;;;;;;3.22;1.50;;;12.60;99.90;;;;;;1919296;73;21142;-74